Time;durP1;ratioP1;P1;durP2;ratioP2;P2;SDS_P1;SDS_P2;PMS_P1;PMS_P2;Temp;Humidity;BMP_temperature;BMP_pressure;BME280_temperature;BME280_humidity;BME280_pressure;Samples;Min_cycle;Max_cycle;Signal;HPM_P1;HPM_P2
2021/11/11 00:02:07;;;;;;;34.13;19.87;;;;;;;4.90;100.00;99538.75;5040927;28;20053;-53
2021/11/11 00:04:34;;;;;;;36.03;21.87;;;;;;;4.90;100.00;99541.28;5042432;28;20476;-54
2021/11/11 00:07:01;;;;;;;32.57;21.57;;;;;;;4.80;100.00;99545.31;5037817;28;20052;-54
2021/11/11 00:09:28;;;;;;;38.20;21.03;;;;;;;4.75;100.00;99549.50;5037579;28;20528;-56
2021/11/11 00:11:54;;;;;;;33.57;20.20;;;;;;;4.80;100.00;99535.16;5038039;28;20048;-53
2021/11/11 00:14:20;;;;;;;34.03;21.33;;;;;;;4.77;100.00;99530.03;5040652;28;20070;-54
2021/11/11 00:16:45;;;;;;;35.60;21.50;;;;;;;4.78;100.00;99541.06;5040221;28;20421;-56
2021/11/11 00:19:11;;;;;;;31.73;19.03;;;;;;;4.76;100.00;99537.63;5038812;28;20037;-53
2021/11/11 00:21:37;;;;;;;32.83;20.37;;;;;;;4.81;100.00;99530.94;5038658;28;20032;-56
2021/11/11 00:24:03;;;;;;;29.37;18.93;;;;;;;4.78;100.00;99529.22;5037837;28;20037;-56
2021/11/11 00:26:28;;;;;;;34.23;19.67;;;;;;;4.75;100.00;99524.09;5038100;28;20375;-54
2021/11/11 00:28:55;;;;;;;34.07;20.33;;;;;;;4.69;100.00;99536.66;5037541;28;20036;-57
2021/11/11 00:31:20;;;;;;;32.93;20.27;;;;;;;4.64;100.00;99529.78;5039996;28;20522;-53
2021/11/11 00:33:46;;;;;;;33.97;20.37;;;;;;;4.60;100.00;99531.41;5039818;28;20069;-55
2021/11/11 00:36:11;;;;;;;31.67;18.87;;;;;;;4.51;100.00;99524.47;5041794;28;20387;-53
2021/11/11 00:38:37;;;;;;;36.57;22.77;;;;;;;4.47;100.00;99529.47;5037324;28;20037;-55
2021/11/11 00:41:03;;;;;;;37.77;24.40;;;;;;;4.44;100.00;99525.19;5037870;28;20037;-54
2021/11/11 00:43:28;;;;;;;33.70;20.97;;;;;;;4.44;100.00;99530.25;5040017;28;20045;-54
2021/11/11 00:45:53;;;;;;;36.43;21.63;;;;;;;4.41;100.00;99531.88;5042522;28;20454;-56
2021/11/11 00:48:19;;;;;;;37.47;21.93;;;;;;;4.38;100.00;99531.81;5037335;28;20033;-53
2021/11/11 00:50:44;;;;;;;35.80;21.63;;;;;;;4.37;100.00;99528.41;5039232;28;20032;-56
2021/11/11 00:53:10;;;;;;;40.03;22.13;;;;;;;4.44;100.00;99530.25;5035607;28;20082;-59
2021/11/11 00:55:37;;;;;;;38.27;20.73;;;;;;;4.46;100.00;99530.28;5035343;28;20587;-55
2021/11/11 00:58:03;;;;;;;32.17;20.17;;;;;;;4.39;100.00;99523.38;5042108;28;20407;-54
2021/11/11 01:00:30;;;;;;;35.43;20.30;;;;;;;4.41;100.00;99534.44;5041295;28;20115;-55
2021/11/11 01:02:56;;;;;;;31.90;19.97;;;;;;;4.43;100.00;99538.69;5036220;28;20492;-54
2021/11/11 01:05:22;;;;;;;35.33;20.23;;;;;;;4.47;100.00;99532.00;5035490;28;20040;-54
2021/11/11 01:07:50;;;;;;;37.10;22.03;;;;;;;4.51;100.00;99536.31;5036200;28;20021;-53
2021/11/11 01:10:17;;;;;;;35.67;21.20;;;;;;;4.51;100.00;99531.22;5038517;28;20427;-52
2021/11/11 01:12:44;;;;;;;39.50;22.43;;;;;;;4.53;100.00;99525.38;5035835;28;20131;-54
2021/11/11 01:15:13;;;;;;;38.33;21.27;;;;;;;4.56;100.00;99527.97;5037927;28;20552;-54
2021/11/11 01:17:39;;;;;;;38.30;20.67;;;;;;;4.56;100.00;99527.97;5038759;28;20065;-55
2021/11/11 01:20:05;;;;;;;35.13;21.80;;;;;;;4.62;100.00;99523.84;5041345;28;20060;-52
2021/11/11 01:22:31;;;;;;;34.77;21.70;;;;;;;4.66;100.00;99530.69;5036225;28;20033;-54
2021/11/11 01:24:57;;;;;;;38.37;20.93;;;;;;;4.68;100.00;99518.84;5037361;28;20090;-54
2021/11/11 01:27:22;;;;;;;39.63;22.37;;;;;;;4.67;100.00;99517.16;5039012;28;20030;-55
2021/11/11 01:29:48;;;;;;;37.17;20.97;;;;;;;4.70;100.00;99507.03;5039901;28;20033;-57
2021/11/11 01:32:13;;;;;;;36.67;21.37;;;;;;;4.70;100.00;99509.59;5033642;28;20033;-56
2021/11/11 01:34:39;;;;;;;39.13;21.13;;;;;;;4.74;100.00;99511.34;5039055;28;20036;-56
2021/11/11 01:37:04;;;;;;;40.13;21.80;;;;;;;4.74;100.00;99506.28;5037516;28;20095;-55
2021/11/11 01:39:30;;;;;;;36.50;21.27;;;;;;;4.79;100.00;99507.22;5038920;28;20128;-56
2021/11/11 01:41:55;;;;;;;37.60;22.17;;;;;;;4.79;100.00;99505.53;5040459;28;20124;-53
2021/11/11 01:44:21;;;;;;;36.93;22.13;;;;;;;4.89;100.00;99506.53;5035533;28;20117;-56
2021/11/11 01:46:47;;;;;;;38.00;22.30;;;;;;;4.89;100.00;99498.91;5038176;28;20061;-56
2021/11/11 01:49:15;;;;;;;41.43;25.37;;;;;;;4.88;100.00;99498.06;5038347;28;20475;-54
2021/11/11 01:51:43;;;;;;;35.53;22.17;;;;;;;4.90;100.00;99500.63;5037020;28;20037;-57
2021/11/11 01:54:08;;;;;;;36.70;21.87;;;;;;;4.89;100.00;99499.78;5036634;28;20026;-57
2021/11/11 01:56:34;;;;;;;44.00;23.10;;;;;;;4.89;100.00;99504.84;5037540;28;20037;-53
2021/11/11 01:59:00;;;;;;;40.60;25.53;;;;;;;4.92;100.00;99504.06;5038486;28;20032;-52
2021/11/11 02:01:26;;;;;;;38.63;22.40;;;;;;;4.96;100.00;99500.75;5038527;28;20154;-53
2021/11/11 02:03:53;;;;;;;43.53;24.37;;;;;;;4.93;100.00;99491.38;5038739;28;20163;-54
2021/11/11 02:06:20;;;;;;;40.97;24.03;;;;;;;4.86;100.00;99489.56;5036736;28;20471;-53
2021/11/11 02:08:45;;;;;;;41.80;24.37;;;;;;;4.95;100.00;99491.41;5036891;28;20078;-53
2021/11/11 02:11:11;;;;;;;47.53;26.83;;;;;;;4.99;100.00;99491.50;5037419;28;20034;-56
2021/11/11 02:13:36;;;;;;;48.27;25.47;;;;;;;4.93;100.00;99488.84;5036153;28;20067;-56
2021/11/11 02:16:02;;;;;;;46.83;25.73;;;;;;;4.98;100.00;99488.91;5038817;28;20437;-55
2021/11/11 02:18:28;;;;;;;42.40;23.47;;;;;;;5.00;100.00;99488.13;5035795;28;20033;-52
2021/11/11 02:20:54;;;;;;;42.27;26.70;;;;;;;5.03;100.00;99487.31;5035347;28;20021;-56
2021/11/11 02:23:20;;;;;;;46.83;26.27;;;;;;;5.05;100.00;99480.56;5036431;28;20026;-52
2021/11/11 02:25:46;;;;;;;42.07;23.93;;;;;;;5.03;100.00;99485.63;5038063;28;20413;-52
2021/11/11 02:28:16;;;;;;;41.20;25.23;;;;;;;5.06;100.00;99480.59;5035800;28;20597;-52
2021/11/11 02:30:45;;;;;;;44.83;25.70;;;;;;;4.94;100.00;99490.56;5038864;28;20170;-54
2021/11/11 02:33:13;;;;;;;44.10;24.93;;;;;;;4.97;100.00;99485.50;5036095;28;20037;-54
2021/11/11 02:35:39;;;;;;;48.00;25.90;;;;;;;5.06;100.00;99483.13;5035870;28;20029;-53
2021/11/11 02:38:06;;;;;;;47.67;26.13;;;;;;;5.02;100.00;99475.44;5039804;28;20021;-55
2021/11/11 02:40:32;;;;;;;42.37;25.70;;;;;;;5.01;100.00;99474.56;5035221;28;20045;-53
2021/11/11 02:42:58;;;;;;;49.33;25.40;;;;;;;5.06;100.00;99477.19;5036936;28;20057;-53
2021/11/11 02:45:30;;;;;;;46.43;27.30;;;;;;;5.06;100.00;99470.41;5036806;28;20036;-53
2021/11/11 02:47:57;;;;;;;47.13;26.47;;;;;;;5.05;100.00;99478.00;5038546;28;20029;-53
2021/11/11 02:50:23;;;;;;;43.50;25.20;;;;;;;5.05;100.00;99485.63;5035800;28;20025;-54
2021/11/11 02:52:51;;;;;;;45.23;25.20;;;;;;;5.10;100.00;99486.56;5037751;28;20094;-52
2021/11/11 02:55:17;;;;;;;40.40;24.50;;;;;;;5.12;100.00;99482.38;5035114;28;20415;-54
2021/11/11 02:57:45;;;;;;;46.40;25.40;;;;;;;5.20;100.00;99485.91;5037210;28;20034;-55
2021/11/11 03:00:22;;;;;;;49.00;27.03;;;;;;;5.19;100.00;99489.25;5039437;28;20033;-55
2021/11/11 03:02:49;;;;;;;46.20;25.57;;;;;;;5.17;100.00;99490.94;5036482;28;20033;-53
2021/11/11 03:05:19;;;;;;;46.47;26.87;;;;;;;5.11;100.00;99488.28;5035155;28;20485;-57
2021/11/11 03:07:45;;;;;;;48.10;26.00;;;;;;;5.09;100.00;99477.25;5038923;28;20032;-51
2021/11/11 03:10:15;;;;;;;56.33;28.60;;;;;;;5.05;100.00;99475.47;5038912;28;20718;-55
2021/11/11 03:12:41;;;;;;;48.27;28.17;;;;;;;5.05;100.00;99481.41;5036250;28;20047;-54
2021/11/11 03:15:07;;;;;;;49.20;28.80;;;;;;;5.06;100.00;99472.09;5033663;28;20033;-52
2021/11/11 03:17:33;;;;;;;54.17;27.27;;;;;;;5.03;100.00;99472.94;5034140;28;20364;-53
2021/11/11 03:19:58;;;;;;;55.57;29.27;;;;;;;4.98;100.00;99476.22;5036485;28;20132;-56
2021/11/11 03:22:24;;;;;;;52.33;27.43;;;;;;;4.96;100.00;99465.19;5039553;28;20025;-55
2021/11/11 03:24:51;;;;;;;51.30;27.17;;;;;;;5.08;100.00;99473.00;5036220;28;20116;-55
2021/11/11 03:27:18;;;;;;;51.60;27.37;;;;;;;4.92;100.00;99481.22;5033661;28;20036;-51
2021/11/11 03:29:46;;;;;;;57.57;28.77;;;;;;;4.88;100.00;99472.66;5037922;28;20486;-54
2021/11/11 03:32:11;;;;;;;52.33;27.60;;;;;;;4.84;100.00;99472.56;5036896;28;20112;-55
2021/11/11 03:34:37;;;;;;;51.60;28.27;;;;;;;4.83;100.00;99475.97;5031233;28;20517;-54
2021/11/11 03:37:04;;;;;;;50.47;26.80;;;;;;;4.88;100.00;99472.66;5032876;28;20116;-52
2021/11/11 03:39:30;;;;;;;52.33;29.10;;;;;;;4.90;100.00;99467.59;5035826;28;20036;-55
2021/11/11 03:41:56;;;;;;;54.77;27.90;;;;;;;4.84;100.00;99465.81;5037094;28;20029;-53
2021/11/11 03:44:23;;;;;;;54.70;27.50;;;;;;;4.80;100.00;99474.19;5038826;28;20057;-56
2021/11/11 03:46:52;;;;;;;50.57;27.67;;;;;;;4.87;100.00;99470.09;5036480;28;20028;-55
2021/11/11 03:49:18;;;;;;;52.77;27.80;;;;;;;4.90;100.00;99467.59;5036812;28;20052;-55
2021/11/11 03:51:44;;;;;;;56.10;28.90;;;;;;;4.87;100.00;99458.25;5038699;28;20475;-54
2021/11/11 03:54:13;;;;;;;53.10;27.47;;;;;;;4.86;100.00;99470.94;5042640;28;20036;-52
2021/11/11 03:56:40;;;;;;;54.80;27.30;;;;;;;4.87;100.00;99470.09;5035721;28;20033;-55
2021/11/11 03:59:06;;;;;;;51.13;26.57;;;;;;;4.88;100.00;99467.56;5038007;28;20140;-54
2021/11/11 04:01:32;;;;;;;53.87;29.10;;;;;;;4.86;100.00;99476.00;5040479;28;20129;-55
2021/11/11 04:03:57;;;;;;;57.20;29.57;;;;;;;4.84;100.00;99475.09;5039471;28;20026;-53
2021/11/11 04:06:23;;;;;;;60.23;30.20;;;;;;;4.72;100.00;99469.81;5038127;28;20029;-53
2021/11/11 04:08:48;;;;;;;58.63;29.03;;;;;;;4.77;100.00;99468.22;5038353;28;20383;-54
2021/11/11 04:11:14;;;;;;;57.00;28.43;;;;;;;4.79;100.00;99469.97;5038585;28;20072;-53
2021/11/11 04:13:40;;;;;;;57.27;28.87;;;;;;;4.80;100.00;99466.59;5041749;28;20033;-53
2021/11/11 04:16:05;;;;;;;57.47;29.13;;;;;;;4.77;100.00;99461.47;5042869;28;20040;-54
2021/11/11 04:18:31;;;;;;;60.43;30.63;;;;;;;4.82;100.00;99453.91;5038609;28;20106;-55
2021/11/11 04:20:57;;;;;;;61.30;31.83;;;;;;;4.82;100.00;99446.31;5037522;28;20027;-57
2021/11/11 04:23:24;;;;;;;54.00;27.47;;;;;;;4.84;100.00;99448.03;5039923;28;20099;-53
2021/11/11 04:28:33;;;;;;;53.07;27.40;;;;;;;4.88;100.00;99452.31;5039874;28;20029;-52
2021/11/11 04:31:03;;;;;;;57.77;28.47;;;;;;;4.88;100.00;99456.59;5038182;28;20471;-54
2021/11/11 04:33:29;;;;;;;53.33;30.40;;;;;;;4.84;100.00;99445.47;5036981;28;20037;-55
2021/11/11 04:36:11;;;;;;;55.10;27.77;;;;;;;4.93;100.00;99457.47;5037977;28;20119;-54
2021/11/11 04:39:36;;;;;;;62.07;31.27;;;;;;;4.90;100.00;99454.91;5045283;28;20398;-56
2021/11/11 05:00:20;;;;;;;60.73;30.37;;;;;;;4.92;100.00;99450.72;5040926;28;20390;-56
2021/11/11 05:05:17;;;;;;;61.87;29.53;;;;;;;4.94;100.00;99447.34;5038819;28;20483;-57
2021/11/11 05:07:43;;;;;;;59.33;28.43;;;;;;;4.96;100.00;99450.78;5036586;28;20040;-56
2021/11/11 05:10:08;;;;;;;56.90;28.60;;;;;;;4.99;100.00;99439.81;5038163;28;20036;-56
2021/11/11 05:12:34;;;;;;;67.73;30.10;;;;;;;4.95;100.00;99443.13;5039100;28;20036;-56
2021/11/11 05:14:59;;;;;;;58.60;29.63;;;;;;;4.94;100.00;99447.34;5038001;28;20041;-53
2021/11/11 05:17:25;;;;;;;62.93;27.40;;;;;;;4.89;100.00;99448.97;5036845;28;20029;-53
2021/11/11 05:19:51;;;;;;;57.37;27.47;;;;;;;4.91;100.00;99446.47;5041661;28;20423;-56
2021/11/11 05:22:17;;;;;;;66.63;27.93;;;;;;;4.93;100.00;99445.63;5039628;28;20057;-53
2021/11/11 05:24:43;;;;;;;57.90;29.27;;;;;;;4.92;100.00;99440.56;5038678;28;20501;-56
2021/11/11 05:27:11;;;;;;;62.23;30.50;;;;;;;4.87;100.00;99444.69;5037350;28;20486;-53
2021/11/11 05:29:37;;;;;;;58.53;28.90;;;;;;;4.94;100.00;99443.97;5035743;28;20029;-53
2021/11/11 05:32:02;;;;;;;56.63;28.07;;;;;;;4.87;100.00;99442.16;5038385;28;20021;-51
2021/11/11 05:34:28;;;;;;;64.20;28.47;;;;;;;4.81;100.00;99439.50;5037823;28;20087;-53
2021/11/11 05:36:53;;;;;;;62.07;31.17;;;;;;;4.85;100.00;99447.19;5040734;28;20490;-52
2021/11/11 05:39:19;;;;;;;60.50;26.87;;;;;;;4.83;100.00;99437.84;5037627;28;20302;-52
2021/11/11 05:41:44;;;;;;;63.77;26.77;;;;;;;4.93;100.00;99453.25;5039885;28;20032;-53
2021/11/11 05:44:10;;;;;;;60.77;27.97;;;;;;;4.93;100.00;99457.47;5039422;28;20132;-51
2021/11/11 05:46:35;;;;;;;61.00;27.37;;;;;;;4.94;100.00;99457.53;5044464;28;20095;-52
2021/11/11 05:49:01;;;;;;;61.10;29.23;;;;;;;4.97;100.00;99462.66;5038165;28;20025;-53
2021/11/11 05:51:27;;;;;;;62.97;28.20;;;;;;;4.97;100.00;99462.66;5035781;28;20522;-56
2021/11/11 05:53:52;;;;;;;60.20;28.33;;;;;;;4.95;100.00;99459.25;5031670;28;20037;-52
2021/11/11 05:56:18;;;;;;;61.13;27.27;;;;;;;5.02;100.00;99457.63;5039599;28;20017;-54
2021/11/11 05:58:44;;;;;;;57.13;26.40;;;;;;;4.95;100.00;99464.31;5036620;28;20507;-53
2021/11/11 06:01:10;;;;;;;62.73;28.60;;;;;;;4.99;100.00;99466.09;5038759;28;20022;-54
2021/11/11 06:03:35;;;;;;;65.17;29.40;;;;;;;4.99;100.00;99470.31;5034329;28;20124;-52
2021/11/11 06:06:01;;;;;;;65.30;27.83;;;;;;;4.99;100.00;99471.16;5040349;28;20025;-53
2021/11/11 06:08:26;;;;;;;61.37;28.57;;;;;;;5.01;100.00;99473.72;5032282;28;20037;-52
2021/11/11 06:10:52;;;;;;;56.97;27.47;;;;;;;5.02;100.00;99467.81;5036501;28;20047;-53
2021/11/11 06:13:17;;;;;;;62.87;28.07;;;;;;;5.00;100.00;99480.50;5041817;28;20040;-54
2021/11/11 06:15:43;;;;;;;65.70;29.13;;;;;;;4.99;100.00;99475.38;5036681;28;20025;-55
2021/11/11 06:18:10;;;;;;;61.20;27.20;;;;;;;5.02;100.00;99478.81;5035320;28;20384;-52
2021/11/11 06:20:42;;;;;;;63.17;26.60;;;;;;;5.05;100.00;99490.72;5036034;28;20026;-51
2021/11/11 06:23:08;;;;;;;55.07;27.73;;;;;;;4.99;100.00;99485.56;5036296;28;20033;-53
2021/11/11 06:25:34;;;;;;;56.77;27.00;;;;;;;4.98;100.00;99483.84;5036782;28;20370;-51
2021/11/11 06:27:59;;;;;;;60.20;26.70;;;;;;;4.98;100.00;99488.91;5034800;28;20033;-53
2021/11/11 06:30:25;;;;;;;54.47;26.03;;;;;;;4.88;100.00;99487.88;5034471;28;20119;-52
2021/11/11 06:32:50;;;;;;;65.40;28.77;;;;;;;4.95;100.00;99497.34;5037549;28;20483;-51
2021/11/11 06:35:15;;;;;;;67.57;30.67;;;;;;;4.92;100.00;99493.91;5041283;28;20048;-54
2021/11/11 06:37:41;;;;;;;50.53;24.63;;;;;;;4.99;100.00;99490.63;5039497;28;20604;-52
2021/11/11 06:40:07;;;;;;;61.83;28.83;;;;;;;4.93;100.00;99496.44;5040473;28;20503;-56
2021/11/11 06:42:33;;;;;;;69.17;29.10;;;;;;;4.88;100.00;99507.38;5040823;28;20057;-57
2021/11/11 06:44:58;;;;;;;61.87;30.03;;;;;;;4.86;100.00;99504.81;5044426;28;20514;-58
2021/11/11 06:47:24;;;;;;;66.40;28.03;;;;;;;4.88;100.00;99498.06;5040872;28;20029;-57
2021/11/11 06:49:49;;;;;;;62.10;27.30;;;;;;;4.87;100.00;99510.75;5034903;28;20550;-56
2021/11/11 06:52:15;;;;;;;59.97;27.37;;;;;;;4.93;100.00;99508.28;5031957;28;20426;-56
2021/11/11 06:54:42;;;;;;;59.87;27.30;;;;;;;4.94;100.00;99515.09;5038429;28;20057;-55
2021/11/11 06:57:08;;;;;;;64.80;28.57;;;;;;;4.90;100.00;99510.78;5035905;28;20121;-52
2021/11/11 06:59:33;;;;;;;57.60;26.67;;;;;;;4.94;100.00;99507.47;5040345;28;20368;-55
2021/11/11 07:01:59;;;;;;;63.47;27.60;;;;;;;4.91;100.00;99512.50;5038166;28;20044;-53
2021/11/11 07:04:25;;;;;;;58.63;25.43;;;;;;;4.97;100.00;99515.16;5033787;28;20472;-51
2021/11/11 07:06:51;;;;;;;61.47;27.17;;;;;;;4.94;100.00;99515.97;5036553;28;20736;-53
2021/11/11 07:09:16;;;;;;;62.17;27.33;;;;;;;4.93;100.00;99515.91;5032837;28;20079;-56
2021/11/11 07:11:41;;;;;;;56.50;26.83;;;;;;;4.92;100.00;99509.97;5036855;28;20045;-56
2021/11/11 07:14:07;;;;;;;62.57;27.20;;;;;;;4.86;100.00;99520.06;5033375;28;20070;-54
2021/11/11 07:16:32;;;;;;;59.77;26.23;;;;;;;4.97;100.00;99510.06;5035565;28;20029;-63
2021/11/11 07:18:58;;;;;;;66.07;30.00;;;;;;;5.00;100.00;99512.69;5035071;28;20075;-57
2021/11/11 07:21:23;;;;;;;66.57;27.47;;;;;;;4.93;100.00;99508.28;5036145;28;20033;-57
2021/11/11 07:23:49;;;;;;;64.63;28.50;;;;;;;4.96;100.00;99521.06;5034985;28;20035;-55
2021/11/11 07:26:14;;;;;;;61.27;27.23;;;;;;;5.01;100.00;99524.53;5036024;28;20029;-54
2021/11/11 07:28:40;;;;;;;57.80;25.67;;;;;;;4.98;100.00;99520.25;5035071;28;20030;-56
2021/11/11 07:31:06;;;;;;;58.10;25.87;;;;;;;5.03;100.00;99521.22;5034975;28;20025;-57
2021/11/11 07:33:31;;;;;;;58.67;25.80;;;;;;;5.06;100.00;99528.00;5036482;28;20033;-57
2021/11/11 07:35:57;;;;;;;57.13;24.60;;;;;;;5.01;100.00;99519.44;5038078;28;20585;-56
2021/11/11 07:38:22;;;;;;;58.60;24.90;;;;;;;5.04;100.00;99529.69;5039711;28;20091;-56
2021/11/11 07:40:48;;;;;;;65.83;26.30;;;;;;;5.10;100.00;99528.91;5039948;28;20055;-56
2021/11/11 07:43:14;;;;;;;64.80;25.77;;;;;;;5.11;100.00;99521.31;5039962;28;20059;-57
2021/11/11 07:45:40;;;;;;;65.03;28.37;;;;;;;5.04;100.00;99524.59;5040911;28;20056;-56
2021/11/11 07:48:06;;;;;;;61.33;26.93;;;;;;;5.10;100.00;99529.78;5037849;28;20025;-57
2021/11/11 07:50:38;;;;;;;62.97;27.63;;;;;;;5.20;100.00;99513.00;5043399;28;20125;-58
2021/11/11 07:53:08;;;;;;;57.43;26.90;;;;;;;5.13;100.00;99514.59;5046498;28;20135;-57
2021/11/11 07:55:33;;;;;;;59.00;27.20;;;;;;;5.11;100.00;99516.25;5042671;28;20028;-57
2021/11/11 07:58:00;;;;;;;63.87;28.37;;;;;;;5.25;100.00;99516.47;5042679;28;20402;-58
2021/11/11 08:00:25;;;;;;;59.77;26.57;;;;;;;5.17;100.00;99513.81;5042123;28;20123;-57
2021/11/11 08:02:51;;;;;;;63.77;28.23;;;;;;;5.15;100.00;99509.53;5037100;28;20071;-58
2021/11/11 08:05:19;;;;;;;53.87;26.10;;;;;;;5.18;100.00;99522.31;5040495;28;20032;-53
2021/11/11 08:07:47;;;;;;;63.83;27.30;;;;;;;5.12;100.00;99527.28;5042342;28;20512;-58
2021/11/11 08:10:13;;;;;;;58.87;26.57;;;;;;;5.16;100.00;99529.03;5042327;28;20061;-57
2021/11/11 08:12:39;;;;;;;62.80;27.57;;;;;;;5.24;100.00;99528.34;5041010;28;20482;-58
2021/11/11 08:15:07;;;;;;;61.90;28.23;;;;;;;5.24;100.00;99524.94;5057791;28;20042;-59
2021/11/11 08:17:32;;;;;;;60.73;27.50;;;;;;;5.27;100.00;99533.47;5040492;28;20029;-57
2021/11/11 08:19:58;;;;;;;56.87;28.43;;;;;;;5.30;100.00;99532.66;5040830;28;20386;-56
2021/11/11 08:22:25;;;;;;;58.10;26.40;;;;;;;5.26;100.00;99526.66;5040204;28;20147;-60
2021/11/11 08:24:51;;;;;;;61.53;28.10;;;;;;;5.23;100.00;99533.38;5040033;28;20087;-56
2021/11/11 08:27:19;;;;;;;61.23;27.70;;;;;;;5.27;100.00;99533.47;5041194;28;20018;-58
2021/11/11 08:29:46;;;;;;;62.20;26.53;;;;;;;5.27;100.00;99532.59;5042909;28;20498;-54
2021/11/11 08:32:13;;;;;;;63.43;28.83;;;;;;;5.31;100.00;99539.44;5040590;28;20488;-56
2021/11/11 08:34:43;;;;;;;63.53;27.13;;;;;;;5.24;100.00;99541.03;5041752;28;20480;-55
2021/11/11 08:37:09;;;;;;;58.07;25.83;;;;;;;5.36;100.00;99548.00;5040253;28;20051;-58
2021/11/11 08:39:36;;;;;;;61.60;27.30;;;;;;;5.35;100.00;99546.28;5040948;28;20021;-56
2021/11/11 08:42:03;;;;;;;57.50;25.40;;;;;;;5.48;100.00;99538.88;5040993;28;20044;-57
2021/11/11 08:44:28;;;;;;;52.27;25.70;;;;;;;5.54;100.00;99548.31;5038934;28;20754;-57
2021/11/11 08:46:54;;;;;;;54.43;27.03;;;;;;;5.52;100.00;99550.81;5041067;28;20025;-57
2021/11/11 08:49:20;;;;;;;65.40;28.67;;;;;;;5.55;100.00;99550.03;5041835;28;20517;-57
2021/11/11 08:51:51;;;;;;;59.87;29.50;;;;;;;5.64;100.00;99555.25;5046053;28;20087;-58
2021/11/11 08:54:19;;;;;;;64.03;28.50;;;;;;;5.68;100.00;99554.47;5036438;28;20087;-56
2021/11/11 08:56:48;;;;;;;57.80;26.73;;;;;;;5.62;100.00;99561.13;5039704;28;20427;-58
2021/11/11 08:59:22;;;;;;;55.50;25.93;;;;;;;5.71;100.00;99559.59;5039263;28;20044;-57
2021/11/11 09:01:49;;;;;;;59.08;25.90;;;;;;;5.73;100.00;99555.38;5036370;28;20112;-58
2021/11/11 09:04:15;;;;;;;58.50;29.60;;;;;;;5.71;100.00;99558.75;5036536;28;20041;-57
2021/11/11 09:06:42;;;;;;;58.50;26.77;;;;;;;5.75;100.00;99561.34;5037605;28;20038;-57
2021/11/11 09:09:07;;;;;;;58.60;26.63;;;;;;;5.75;100.00;99556.28;5037550;28;20064;-59
2021/11/11 09:11:33;;;;;;;53.07;25.10;;;;;;;5.79;100.00;99560.56;5037438;28;20075;-59
2021/11/11 09:13:59;;;;;;;55.20;25.13;;;;;;;5.73;100.00;99554.56;5037084;28;20103;-57
2021/11/11 09:16:25;;;;;;;57.10;24.73;;;;;;;5.71;100.00;99556.19;5038817;28;20076;-59
2021/11/11 09:18:51;;;;;;;52.07;25.53;;;;;;;5.75;100.00;99555.41;5037958;28;20457;-58
2021/11/11 09:21:17;;;;;;;58.57;25.83;;;;;;;5.89;100.00;99569.25;5038437;28;20068;-59
2021/11/11 09:23:44;;;;;;;57.87;26.93;;;;;;;5.90;100.00;99563.28;5037184;28;20445;-60
2021/11/11 09:26:10;;;;;;;52.20;25.10;;;;;;;5.93;100.00;99555.72;5037828;28;20128;-59
2021/11/11 09:28:39;;;;;;;55.67;26.73;;;;;;;5.93;100.00;99556.59;5036981;28;20129;-56
2021/11/11 09:31:07;;;;;;;59.17;27.10;;;;;;;5.92;100.00;99548.91;5038221;28;20443;-59
2021/11/11 09:33:33;;;;;;;64.80;26.03;;;;;;;5.96;100.00;99559.16;5039807;28;20415;-56
2021/11/11 09:35:59;;;;;;;56.87;24.53;;;;;;;5.95;100.00;99554.91;5036616;28;20035;-59
2021/11/11 09:38:25;;;;;;;57.33;25.50;;;;;;;5.96;100.00;99551.53;5038847;28;20025;-62
2021/11/11 09:40:52;;;;;;;51.17;23.97;;;;;;;6.03;100.00;99549.91;5039002;28;20029;-58
2021/11/11 09:43:18;;;;;;;51.80;25.83;;;;;;;6.03;100.00;99536.31;5037270;28;20049;-58
2021/11/11 09:45:46;;;;;;;55.27;26.67;;;;;;;6.12;100.00;99539.84;5035229;28;20021;-59
2021/11/11 09:48:14;;;;;;;56.17;25.93;;;;;;;6.11;100.00;99543.22;5036798;28;20270;-60
2021/11/11 09:50:40;;;;;;;54.00;26.43;;;;;;;6.10;100.00;99533.91;5037416;28;20032;-58
2021/11/11 09:53:09;;;;;;;51.87;26.33;;;;;;;6.14;100.00;99539.88;5037359;28;20116;-57
2021/11/11 09:58:41;;;;;;;52.80;26.27;;;;;;;6.07;100.00;99541.47;5034122;28;20072;-58
2021/11/11 10:01:20;;;;;;;52.50;25.33;;;;;;;6.14;100.00;99539.88;5038439;28;20065;-59
2021/11/11 10:03:48;;;;;;;59.17;26.60;;;;;;;6.13;100.00;99535.63;5037331;28;20048;-57
2021/11/11 10:06:16;;;;;;;55.53;27.07;;;;;;;6.18;100.00;99534.00;5038817;28;20033;-60
2021/11/11 10:08:46;;;;;;;50.17;25.77;;;;;;;6.17;100.00;99538.22;5036109;28;20035;-60
2021/11/11 10:11:26;;;;;;;53.50;26.40;;;;;;;6.24;100.00;99541.69;5035804;28;20038;-60
2021/11/11 10:13:57;;;;;;;54.80;27.67;;;;;;;6.24;100.00;99537.47;5035809;28;20116;-60
2021/11/11 10:16:22;;;;;;;55.67;26.80;;;;;;;6.18;100.00;99550.13;5036810;28;20037;-60
2021/11/11 10:18:51;;;;;;;53.00;25.80;;;;;;;6.21;100.00;99531.47;5037443;28;20486;-60
2021/11/11 10:21:20;;;;;;;50.20;24.83;;;;;;;6.28;100.00;99530.75;5036546;28;20151;-56
2021/11/11 10:23:46;;;;;;;51.07;25.37;;;;;;;6.24;100.00;99522.19;5036990;28;20040;-59
2021/11/11 10:26:23;;;;;;;53.77;24.40;;;;;;;6.27;100.00;99524.78;5037284;28;20395;-60
2021/11/11 10:28:49;;;;;;;48.77;23.60;;;;;;;6.29;100.00;99523.09;5035025;28;20037;-59
2021/11/11 10:31:16;;;;;;;48.60;24.73;;;;;;;6.23;100.00;99528.13;5037659;28;20045;-59
2021/11/11 10:34:04;;;;;;;52.23;24.30;;;;;;;6.36;100.00;99530.00;5033175;28;20056;-57
2021/11/11 10:36:41;;;;;;;62.10;27.43;;;;;;;6.49;100.00;99530.16;5034262;28;20131;-59
2021/11/11 10:39:31;;;;;;;56.53;26.97;;;;;;;6.44;100.00;99517.34;5035456;28;20037;-59
2021/11/11 10:41:58;;;;;;;58.90;26.17;;;;;;;6.30;100.00;99517.19;5032261;28;20041;-59
2021/11/11 10:44:26;;;;;;;54.47;24.80;;;;;;;6.31;100.00;99518.03;5032164;28;20501;-59
2021/11/11 10:46:59;;;;;;;55.00;24.93;;;;;;;6.40;100.00;99513.91;5031612;28;20098;-57
2021/11/11 10:49:31;;;;;;;48.47;24.33;;;;;;;6.43;100.00;99513.94;5032832;28;20078;-56
2021/11/11 10:52:20;;;;;;;57.13;27.03;;;;;;;6.37;100.00;99525.75;5039840;28;20628;-58
2021/11/11 10:55:06;;;;;;;53.77;24.73;;;;;;;6.24;100.00;99521.31;5034919;28;20098;-58
2021/11/11 10:57:48;;;;;;;59.17;27.87;;;;;;;6.38;100.00;99512.19;5032578;28;20033;-56
2021/11/11 11:00:38;;;;;;;53.53;25.80;;;;;;;6.42;100.00;99513.91;5036293;28;20029;-53
2021/11/11 11:03:08;;;;;;;52.53;26.73;;;;;;;6.38;100.00;99507.09;5027792;28;20049;-60
2021/11/11 11:05:44;;;;;;;55.63;25.27;;;;;;;6.48;100.00;99503.81;5035420;28;20052;-60
2021/11/11 11:08:14;;;;;;;59.73;29.07;;;;;;;6.38;100.00;99499.44;5034410;28;20108;-59
2021/11/11 11:10:43;;;;;;;55.97;27.43;;;;;;;6.39;100.00;99491.81;5033774;28;20030;-55
2021/11/11 11:13:21;;;;;;;58.27;27.10;;;;;;;6.40;100.00;99491.00;5032426;28;20087;-55
2021/11/11 11:15:50;;;;;;;59.43;27.03;;;;;;;6.44;100.00;99491.88;5032123;28;20495;-58
2021/11/11 11:18:18;;;;;;;54.47;27.17;;;;;;;6.36;100.00;99502.00;5033164;28;20086;-57
2021/11/11 11:20:43;;;;;;;58.70;26.83;;;;;;;6.42;100.00;99503.72;5036869;28;20452;-59
2021/11/11 11:23:09;;;;;;;59.50;26.83;;;;;;;6.41;100.00;99495.22;5034940;28;20084;-57
2021/11/11 11:25:34;;;;;;;57.77;27.00;;;;;;;6.31;100.00;99484.94;5035529;28;20044;-57
2021/11/11 11:28:00;;;;;;;50.17;24.87;;;;;;;6.30;100.00;99480.69;5034447;28;20032;-57
2021/11/11 11:30:40;;;;;;;50.87;24.67;;;;;;;6.34;100.00;99475.63;5035092;28;20767;-59
2021/11/11 11:33:23;;;;;;;49.77;26.07;;;;;;;6.37;100.00;99482.44;5033688;28;20115;-55
2021/11/11 11:35:48;;;;;;;54.70;26.13;;;;;;;6.42;100.00;99474.03;5035033;28;20072;-52
2021/11/11 11:38:28;;;;;;;51.90;24.63;;;;;;;6.41;100.00;99479.94;5034689;28;20064;-57
2021/11/11 11:40:54;;;;;;;55.93;26.43;;;;;;;6.32;100.00;99472.19;5032624;28;20149;-55
2021/11/11 11:43:27;;;;;;;54.50;26.63;;;;;;;6.27;100.00;99470.47;5035035;28;20084;-56
2021/11/11 11:45:53;;;;;;;54.87;27.10;;;;;;;6.33;100.00;99470.50;5033823;28;20022;-57